Buoy 44839

sailwx.info

Track history (hours):
 
Tides and Currents Weather Stations Pressure Air Temp Water Temp Dewpoint Dewpoint Depression Visibility Wind Speed Wind Dir Waves Ship Positions

Drifting buoy 44839

Last reported at 2017-Dec-18 10:00 UTC. Time now 2017-Dec-18 11:15 UTC.
Position N 32°32' W 080°08'.

Barometer 1020.8 mb
Water temperature 14.6 ° C

Date/timePositionNaut miles runAvg speedWind from/ knotsBaromVisibWave heightAir tempDewpointWater temp
2017-Dec-18 10:00N 32°32' W 080°08'9 8.6 1020.8 14.6
2017-Dec-18 09:00N 32°31' W 079°58'17 8.4 1021.2 15.7
2017-Dec-18 07:00N 32°30' W 079°38'9 8.6 1021.4 19.0
2017-Dec-18 06:00N 32°29' W 079°28'8 7.6 1021.2 20.2
2017-Dec-18 05:00N 32°29' W 079°19'8 8.1 1021.8 21.0
2017-Dec-18 04:00N 32°28' W 079°10'8 7.7 1021.6 21.4
2017-Dec-18 03:00N 32°27' W 079°01'8 7.6 1022.0 21.1
2017-Dec-18 02:00N 32°27' W 078°52'8 8.1 1022.2 20.5
2017-Dec-18 01:00N 32°27' W 078°42'9 9.1 1022.5 20.1
2017-Dec-18 00:00N 32°27' W 078°31'9 8.6 1022.4 20.2
2017-Dec-17 23:00N 32°27' W 078°21'8 7.7 1022.4 20.6
2017-Dec-17 22:00N 32°26' W 078°12'8 8.2 1022.5 20.8
2017-Dec-17 21:00N 32°25' W 078°02'8 8.2 1022.8 20.9
2017-Dec-17 20:00N 32°23' W 077°53'8 7.7 1022.6 20.9
2017-Dec-17 19:00N 32°22' W 077°44'7 7.1 1022.7 20.8
2017-Dec-17 18:00N 32°22' W 077°35'7 6.7 1023.4 20.6
2017-Dec-17 17:00N 32°20' W 077°28'6 5.9 1024.2 20.7
2017-Dec-17 16:00N 32°19' W 077°21'8 7.8 1025.2 21.1
2017-Dec-17 15:00N 32°14' W 077°13'7 6.8 1026.0 20.8
2017-Dec-17 14:00N 32°11' W 077°06'8 7.5 1025.5 19.3
2017-Dec-17 13:00N 32°09' W 076°58'7 6.6 1025.1 18.5
2017-Dec-17 12:00N 32°08' W 076°50'7 6.7 1025.1 17.2
2017-Dec-17 11:00N 32°07' W 076°42'8 7.8 1024.8 17.1
2017-Dec-17 10:00N 32°05' W 076°33'7 7.2 1024.4 17.2
2017-Dec-17 09:00N 32°04' W 076°25'7 7.2 1024.3 17.2
2017-Dec-17 08:00N 32°03' W 076°16'8 7.8 1024.4 17.0
2017-Dec-17 07:00N 32°01' W 076°07'7 6.7 1024.6 16.9
2017-Dec-17 06:00N 32°00' W 075°59'7 7.2 1024.7 16.8
2017-Dec-17 05:00N 31°59' W 075°51'7 6.7 1024.8 16.6
2017-Dec-17 04:00N 31°58' W 075°43'7 6.6 1025.0 16.5
2017-Dec-17 03:00N 31°57' W 075°35'7 6.6 1024.8 16.6
2017-Dec-17 02:00N 31°56' W 075°28'6 6.1 1024.5 16.6
2017-Dec-17 01:00N 31°56' W 075°20'7 6.6 1024.0 16.5
2017-Dec-17 00:00N 31°55' W 075°13'6 6.1 1023.7 16.5
2017-Dec-16 23:00N 31°55' W 075°05'6 5.6 1022.9 16.6
2017-Dec-16 22:00N 31°54' W 074°59'5 5.2 1022.3 16.8
2017-Dec-16 21:00N 31°56' W 074°53'2 1.5 1021.9 17.6
2017-Dec-16 20:00N 31°56' W 074°52'6 5.6 1021.9 18.1
2017-Dec-16 19:00N 31°59' W 074°46'5 5.2 1021.9 18.2
2017-Dec-16 18:00N 31°58' W 074°40'5 4.6 1021.7 18.0
2017-Dec-16 17:00N 31°57' W 074°34'4 3.5 1021.9 20.0
2017-Dec-16 16:00N 31°59' W 074°31'4 4.5 1022.2 18.8
2017-Dec-16 15:00N 31°57' W 074°26'7 6.6 1022.2 18.7
2017-Dec-16 14:00N 31°56' W 074°18'1 1.2 1021.2 18.3
2017-Dec-16 13:00N 31°56' W 074°17'1 0.6 1020.3 18.6
2017-Dec-16 12:00N 31°56' W 074°17'1 0.6 1019.5 18.9
2017-Dec-16 11:00N 31°57' W 074°17'1 1.2 1018.5 19.6
2017-Dec-16 10:00N 31°58' W 074°17'1 0.8 1017.3 19.9
2017-Dec-16 09:00N 31°59' W 074°17'1 0.8 1016.8 20.6
2017-Dec-16 08:00N 31°59' W 074°18'3 1.4 1016.6 21.2
2017-Dec-16 06:00N 32°01' W 074°20'6 6.1 1014.9 21.3
2017-Dec-16 05:00N 32°01' W 074°28'7 7.3 1015.3 21.1
2017-Dec-16 04:00N 31°59' W 074°36'8 8.0 1015.5 19.8
2017-Dec-16 03:00N 31°56' W 074°45'7 7.0 1015.2 20.2
2017-Dec-16 02:00N 31°54' W 074°53'7 7.0 1015.1 20.4
2017-Dec-16 01:00N 31°50' W 074°59'4 3.6 1014.8 22.4
2017-Dec-16 00:00N 31°47' W 075°02'1 0.8 1015.1 22.4
2017-Dec-15 23:00N 31°46' W 075°02'6 6.0 1014.7 22.1
2017-Dec-15 22:00N 31°41' W 074°59'6 6.5 1014.5 22.0
2017-Dec-15 21:00N 31°35' W 074°55'6 5.5 1014.2 21.2
2017-Dec-15 20:00N 31°31' W 074°51'6 5.8 1014.0 20.2
2017-Dec-15 19:00N 31°28' W 074°46'7 6.8 1014.5 20.5
2017-Dec-15 18:00N 31°25' W 074°38'7 7.1 1014.4 20.9
2017-Dec-15 17:00N 31°21' W 074°31'7 6.7 1015.8 20.7
2017-Dec-15 16:00N 31°17' W 074°25'7 7.1 1016.7 21.2
2017-Dec-15 15:00N 31°14' W 074°17'7 7.1 1017.2 22.3
2017-Dec-15 14:00N 31°10' W 074°10'7 6.7 1017.4 22.3
2017-Dec-15 13:00N 31°07' W 074°04'6 5.7 1016.6 21.8
2017-Dec-15 12:00N 31°06' W 073°57'48 1.1 1016.4 21.8
2017-Dec-13 16:00N 30°59' W 073°02'2 1.9 1012.1 19.3
2017-Dec-13 15:00N 31°01' W 073°02'2 1.6 1012.0 18.2
2017-Dec-13 14:00N 31°02' W 073°04'2 1.6 1010.9 18.5
2017-Dec-13 13:00N 31°03' W 073°05'2 1.6 1009.8 18.4
2017-Dec-13 12:00N 31°04' W 073°06'2 1.6 1008.1 19.0
2017-Dec-13 11:00N 31°05' W 073°07'2 2.0 1006.7 19.4
2017-Dec-13 10:00N 31°07' W 073°09'2 1.7 1005.4 20.2
2017-Dec-13 09:00N 31°07' W 073°11'2 1.7 1004.5 20.4
2017-Dec-13 08:00N 31°08' W 073°13'2 1.7 1004.3 20.0
2017-Dec-13 07:00N 31°08' W 073°14'2 1.5 1003.7 18.2
2017-Dec-13 06:00N 31°08' W 073°16'2 1.5 1003.3 20.1
2017-Dec-13 05:00N 31°08' W 073°18'2 1.5 1003.5 18.4
2017-Dec-13 04:00N 31°08' W 073°20'1 1.2 1004.1 21.8
2017-Dec-13 03:00N 31°08' W 073°21'2 1.7 1004.0 21.5
2017-Dec-13 02:00N 31°07' W 073°23'4 1.8 1004.4 21.4
2017-Dec-13 00:00N 31°05' W 073°26'7 6.6 1005.9 21.7
2017-Dec-12 23:00N 30°58' W 073°26'7 6.6 1006.6 21.5
2017-Dec-12 22:00N 30°52' W 073°27'6 6.2 1006.7 21.8
2017-Dec-12 21:00N 30°46' W 073°31'2 2.1 1007.4 21.9
2017-Dec-12 20:00N 30°46' W 073°33'6 5.7 1007.7 21.7
2017-Dec-12 19:00N 30°50' W 073°37'5 5.2 1008.2 22.0
2017-Dec-12 18:00N 30°55' W 073°40'1 0.8 1009.2 20.8
2017-Dec-12 17:00N 30°55' W 073°41'6 6.0 1010.7 22.4
2017-Dec-12 16:00N 30°58' W 073°47'4 4.5 1012.3 21.9
2017-Dec-12 15:00N 31°00' W 073°52'6 5.7 1013.4 21.6
2017-Dec-12 14:00N 31°01' W 073°58'4 4.1 1013.7 21.1
2017-Dec-12 13:00N 31°01' W 074°03'2 2.5 1014.0 20.9
2017-Dec-12 12:00N 31°03' W 074°02'1 1.2 1014.0 20.8
2017-Dec-12 11:00N 31°02' W 074°02'3 1.5 1014.2 20.6
2017-Dec-12 09:00N 30°59' W 074°03'1 1.2 1014.5 20.1
2017-Dec-12 08:00N 30°58' W 074°03'3 1.5 1015.2 20.1
2017-Dec-12 06:00N 30°55' W 074°03'11 5.4 1016.5 20.0
2017-Dec-12 04:00N 30°49' W 073°52'7 7.2 1018.0 19.4
2017-Dec-12 03:00N 30°46' W 073°45'15 7.6 1018.4 19.5
2017-Dec-12 01:00N 30°35' W 073°32'5 5.4 1018.8 19.2
2017-Dec-12 00:00N 30°30' W 073°31'8 8.1 1018.8 19.1
2017-Dec-11 23:00N 30°23' W 073°37'7 7.4 1018.6 19.1
2017-Dec-11 22:00N 30°16' W 073°38'3 3.2 1018.3 19.1
2017-Dec-11 21:00N 30°14' W 073°41'4 3.5 1018.1 19.9
2017-Dec-11 20:00N 30°16' W 073°44'4 3.8 1018.1 19.9
2017-Dec-11 19:00N 30°17' W 073°48'4 3.7 1018.5 19.6
2017-Dec-11 18:00N 30°17' W 073°52'2 2.1 1019.0 19.6
2017-Dec-11 17:00N 30°15' W 073°53'17 5.8 1019.9 18.8
2017-Dec-11 14:00N 29°59' W 074°02'6 6.0 1022.1 18.0
2017-Dec-11 13:00N 29°53' W 074°02'4 4.2 1021.9 17.8
2017-Dec-11 12:00N 29°49' W 074°02'1 0.6 1021.5 17.7
2017-Dec-11 11:00N 29°50' W 074°02'1 0.6 1020.9 17.6
2017-Dec-11 10:00N 29°50' W 074°02'1 0.6 1020.6 17.6
2017-Dec-11 09:00N 29°51' W 074°02'1 0.6 1020.4 17.7
2017-Dec-11 08:00N 29°52' W 074°02'1 0.6 1020.5 17.9
2017-Dec-11 07:00N 29°52' W 074°02'1 0.5 1020.5 17.8
2017-Dec-11 06:00N 29°52' W 074°03'6 6.0 1020.7 17.8
2017-Dec-11 05:00N 29°58' W 074°04'12 5.9 1021.2 17.8
2017-Dec-11 03:00N 30°08' W 073°56'6 6.3 1021.5 17.5
2017-Dec-11 02:00N 30°07' W 073°49'6 5.7 1021.3 18.1
2017-Dec-11 01:00N 30°08' W 073°42'6 5.7 1021.0 17.9
2017-Dec-11 00:00N 30°05' W 073°36'6 5.7 1020.5 18.6
2017-Dec-10 23:00N 30°05' W 073°29'6 6.3 1019.8 19.1
2017-Dec-10 22:00N 30°04' W 073°22'6 6.2 1019.0 19.4
2017-Dec-10 21:00N 30°04' W 073°15'5 4.7 1018.5 19.4
2017-Dec-10 20:00N 30°04' W 073°10'0 0.0 1018.0 19.8
2017-Dec-10 19:00N 30°04' W 073°10'1 0.8 1017.6 20.1
2017-Dec-10 18:00N 30°04' W 073°10'0 0.0 1017.7 19.9
2017-Dec-10 17:00N 30°04' W 073°10'1 0.5 1018.1 20.2
2017-Dec-10 16:00N 30°04' W 073°11'0 0.0 1018.4 20.8
2017-Dec-10 15:00N 30°04' W 073°11'1 0.8 1018.3 20.9
2017-Dec-10 14:00N 30°03' W 073°11'1 0.3 1017.8 20.8
2017-Dec-10 11:00N 30°04' W 073°12'0 0.0 1014.7 20.9
2017-Dec-10 10:00N 30°04' W 073°12'1 0.5 1013.7 20.8
2017-Dec-10 09:00N 30°04' W 073°13'1 1.2 1012.9 20.0
2017-Dec-10 08:00N 30°03' W 073°14'1 0.5 1013.1 19.2
2017-Dec-10 07:00N 30°03' W 073°14'1 0.5 1013.0 18.8
2017-Dec-10 06:00N 30°03' W 073°15'1 0.8 1012.3 19.7
2017-Dec-10 05:00N 30°02' W 073°16'2 0.8 1012.7 19.4
2017-Dec-10 03:00N 30°02' W 073°17'1 1.0 1012.5 21.0
2017-Dec-10 02:00N 30°02' W 073°19'1 1.3 1012.0 21.4
2017-Dec-10 01:00N 30°01' W 073°19'1 0.8 1011.7 20.8
2017-Dec-10 00:00N 30°00' W 073°20'1 0.8 1010.3 23.8
2017-Dec-09 23:00N 29°59' W 073°20'1 1.2 1010.1 25.4
2017-Dec-09 22:00N 29°58' W 073°20'1 1.3 1009.8 25.5
2017-Dec-09 21:00N 29°57' W 073°21'1 0.8 1009.8 25.7
2017-Dec-09 20:00N 29°56' W 073°22'2 0.9 1009.7 25.9
2017-Dec-09 18:00N 29°55' W 073°22'1 1.3 1010.0 26.2
2017-Dec-09 17:00N 29°53' W 073°23'1 0.6 1010.7 26.0
2017-Dec-09 16:00N 29°53' W 073°23'1 1.3 1012.0 25.8
2017-Dec-09 15:00N 29°52' W 073°23'1 1.2 1012.4 25.8
2017-Dec-09 14:00N 29°50' W 073°23'1 0.8 1012.7 25.6
2017-Dec-09 13:00N 29°50' W 073°24'1 1.3 1012.2 25.5
2017-Dec-09 12:00N 29°49' W 073°25'1 1.2 1012.4 25.3
2017-Dec-09 11:00N 29°47' W 073°25'1 1.3 1012.3 25.1
2017-Dec-09 10:00N 29°46' W 073°25'1 0.8 1011.8 25.1
2017-Dec-09 09:00N 29°46' W 073°26'1 1.2 1011.9 25.1
2017-Dec-09 08:00N 29°44' W 073°26'1 1.3 1012.6 25.1
2017-Dec-09 07:00N 29°43' W 073°26'1 0.8 1012.3 25.1
2017-Dec-09 06:00N 29°43' W 073°27'3 1.0 1012.8 25.2
2017-Dec-09 03:00N 29°40' W 073°28'2 0.9 1013.7 25.3
2017-Dec-09 01:00N 29°38' W 073°28'1 0.8 1013.7 25.3
2017-Dec-09 00:00N 29°37' W 073°28'1 1.2 1013.6 25.2
2017-Dec-08 23:00N 29°36' W 073°28'1 0.8 1013.3 25.3
2017-Dec-08 22:00N 29°35' W 073°29'2 0.9 1013.0 25.3
2017-Dec-08 20:00N 29°37' W 073°29'1 1.2 1012.9 25.3
2017-Dec-08 19:00N 29°36' W 073°29'4 3.7 1013.1 25.3
2017-Dec-08 18:00N 29°40' W 073°28'4 4.3 1013.9 25.2
2017-Dec-08 17:00N 29°44' W 073°26'10 4.9 1014.7 25.0
2017-Dec-08 15:00N 29°53' W 073°22'5 4.7 1015.3 24.4
2017-Dec-08 14:00N 29°57' W 073°20'5 5.2 1015.2 23.7
2017-Dec-08 13:00N 30°02' W 073°17'5 5.5 1015.3 23.6
2017-Dec-08 12:00N 30°07' W 073°14'6 5.8 1015.1 22.4
2017-Dec-08 11:00N 30°12' W 073°12'5 5.5 1015.0 22.5
2017-Dec-08 10:00N 30°16' W 073°07'   1014.4 23.1
Track history (hours):
 
Tides and Currents Weather Stations Pressure Air Temp Water Temp Dewpoint Dewpoint Depression Visibility Wind Speed Wind Dir Waves Ship Positions

Drifting buoy 44839

Last reported at 2017-Dec-18 10:00 UTC. Time now 2017-Dec-18 11:15 UTC.
Position N 32°32' W 080°08'.

Barometer 1020.8 mb
Water temperature 14.6 ° C

Date/timePositionNaut miles runAvg speedWind from/ knotsBaromVisibWave heightAir tempDewpointWater temp
2017-Dec-18 10:00N 32°32' W 080°08'9 8.6 1020.8 14.6
2017-Dec-18 09:00N 32°31' W 079°58'17 8.4 1021.2 15.7
2017-Dec-18 07:00N 32°30' W 079°38'9 8.6 1021.4 19.0
2017-Dec-18 06:00N 32°29' W 079°28'8 7.6 1021.2 20.2
2017-Dec-18 05:00N 32°29' W 079°19'8 8.1 1021.8 21.0
2017-Dec-18 04:00N 32°28' W 079°10'8 7.7 1021.6 21.4
2017-Dec-18 03:00N 32°27' W 079°01'8 7.6 1022.0 21.1
2017-Dec-18 02:00N 32°27' W 078°52'8 8.1 1022.2 20.5
2017-Dec-18 01:00N 32°27' W 078°42'9 9.1 1022.5 20.1
2017-Dec-18 00:00N 32°27' W 078°31'9 8.6 1022.4 20.2
2017-Dec-17 23:00N 32°27' W 078°21'8 7.7 1022.4 20.6
2017-Dec-17 22:00N 32°26' W 078°12'8 8.2 1022.5 20.8
2017-Dec-17 21:00N 32°25' W 078°02'8 8.2 1022.8 20.9
2017-Dec-17 20:00N 32°23' W 077°53'8 7.7 1022.6 20.9
2017-Dec-17 19:00N 32°22' W 077°44'7 7.1 1022.7 20.8
2017-Dec-17 18:00N 32°22' W 077°35'7 6.7 1023.4 20.6
2017-Dec-17 17:00N 32°20' W 077°28'6 5.9 1024.2 20.7
2017-Dec-17 16:00N 32°19' W 077°21'8 7.8 1025.2 21.1
2017-Dec-17 15:00N 32°14' W 077°13'7 6.8 1026.0 20.8
2017-Dec-17 14:00N 32°11' W 077°06'8 7.5 1025.5 19.3
2017-Dec-17 13:00N 32°09' W 076°58'7 6.6 1025.1 18.5
2017-Dec-17 12:00N 32°08' W 076°50'7 6.7 1025.1 17.2
2017-Dec-17 11:00N 32°07' W 076°42'8 7.8 1024.8 17.1
2017-Dec-17 10:00N 32°05' W 076°33'7 7.2 1024.4 17.2
2017-Dec-17 09:00N 32°04' W 076°25'7 7.2 1024.3 17.2
2017-Dec-17 08:00N 32°03' W 076°16'8 7.8 1024.4 17.0
2017-Dec-17 07:00N 32°01' W 076°07'7 6.7 1024.6 16.9
2017-Dec-17 06:00N 32°00' W 075°59'7 7.2 1024.7 16.8
2017-Dec-17 05:00N 31°59' W 075°51'7 6.7 1024.8 16.6
2017-Dec-17 04:00N 31°58' W 075°43'7 6.6 1025.0 16.5
2017-Dec-17 03:00N 31°57' W 075°35'7 6.6 1024.8 16.6
2017-Dec-17 02:00N 31°56' W 075°28'6 6.1 1024.5 16.6
2017-Dec-17 01:00N 31°56' W 075°20'7 6.6 1024.0 16.5
2017-Dec-17 00:00N 31°55' W 075°13'6 6.1 1023.7 16.5
2017-Dec-16 23:00N 31°55' W 075°05'6 5.6 1022.9 16.6
2017-Dec-16 22:00N 31°54' W 074°59'5 5.2 1022.3 16.8
2017-Dec-16 21:00N 31°56' W 074°53'2 1.5 1021.9 17.6
2017-Dec-16 20:00N 31°56' W 074°52'6 5.6 1021.9 18.1
2017-Dec-16 19:00N 31°59' W 074°46'5 5.2 1021.9 18.2
2017-Dec-16 18:00N 31°58' W 074°40'5 4.6 1021.7 18.0
2017-Dec-16 17:00N 31°57' W 074°34'4 3.5 1021.9 20.0
2017-Dec-16 16:00N 31°59' W 074°31'4 4.5 1022.2 18.8
2017-Dec-16 15:00N 31°57' W 074°26'7 6.6 1022.2 18.7
2017-Dec-16 14:00N 31°56' W 074°18'1 1.2 1021.2 18.3
2017-Dec-16 13:00N 31°56' W 074°17'1 0.6 1020.3 18.6
2017-Dec-16 12:00N 31°56' W 074°17'1 0.6 1019.5 18.9
2017-Dec-16 11:00N 31°57' W 074°17'1 1.2 1018.5 19.6
2017-Dec-16 10:00N 31°58' W 074°17'1 0.8 1017.3 19.9
2017-Dec-16 09:00N 31°59' W 074°17'1 0.8 1016.8 20.6
2017-Dec-16 08:00N 31°59' W 074°18'3 1.4 1016.6 21.2
2017-Dec-16 06:00N 32°01' W 074°20'6 6.1 1014.9 21.3
2017-Dec-16 05:00N 32°01' W 074°28'7 7.3 1015.3 21.1
2017-Dec-16 04:00N 31°59' W 074°36'8 8.0 1015.5 19.8
2017-Dec-16 03:00N 31°56' W 074°45'7 7.0 1015.2 20.2
2017-Dec-16 02:00N 31°54' W 074°53'7 7.0 1015.1 20.4
2017-Dec-16 01:00N 31°50' W 074°59'4 3.6 1014.8 22.4
2017-Dec-16 00:00N 31°47' W 075°02'1 0.8 1015.1 22.4
2017-Dec-15 23:00N 31°46' W 075°02'6 6.0 1014.7 22.1
2017-Dec-15 22:00N 31°41' W 074°59'6 6.5 1014.5 22.0
2017-Dec-15 21:00N 31°35' W 074°55'6 5.5 1014.2 21.2
2017-Dec-15 20:00N 31°31' W 074°51'6 5.8 1014.0 20.2
2017-Dec-15 19:00N 31°28' W 074°46'7 6.8 1014.5 20.5
2017-Dec-15 18:00N 31°25' W 074°38'7 7.1 1014.4 20.9
2017-Dec-15 17:00N 31°21' W 074°31'7 6.7 1015.8 20.7
2017-Dec-15 16:00N 31°17' W 074°25'7 7.1 1016.7 21.2
2017-Dec-15 15:00N 31°14' W 074°17'7 7.1 1017.2 22.3
2017-Dec-15 14:00N 31°10' W 074°10'7 6.7 1017.4 22.3
2017-Dec-15 13:00N 31°07' W 074°04'6 5.7 1016.6 21.8
2017-Dec-15 12:00N 31°06' W 073°57'48 1.1 1016.4 21.8
2017-Dec-13 16:00N 30°59' W 073°02'2 1.9 1012.1 19.3
2017-Dec-13 15:00N 31°01' W 073°02'2 1.6 1012.0 18.2
2017-Dec-13 14:00N 31°02' W 073°04'2 1.6 1010.9 18.5
2017-Dec-13 13:00N 31°03' W 073°05'2 1.6 1009.8 18.4
2017-Dec-13 12:00N 31°04' W 073°06'2 1.6 1008.1 19.0
2017-Dec-13 11:00N 31°05' W 073°07'2 2.0 1006.7 19.4
2017-Dec-13 10:00N 31°07' W 073°09'2 1.7 1005.4 20.2
2017-Dec-13 09:00N 31°07' W 073°11'2 1.7 1004.5 20.4
2017-Dec-13 08:00N 31°08' W 073°13'2 1.7 1004.3 20.0
2017-Dec-13 07:00N 31°08' W 073°14'2 1.5 1003.7 18.2
2017-Dec-13 06:00N 31°08' W 073°16'2 1.5 1003.3 20.1
2017-Dec-13 05:00N 31°08' W 073°18'2 1.5 1003.5 18.4
2017-Dec-13 04:00N 31°08' W 073°20'1 1.2 1004.1 21.8
2017-Dec-13 03:00N 31°08' W 073°21'2 1.7 1004.0 21.5
2017-Dec-13 02:00N 31°07' W 073°23'4 1.8 1004.4 21.4
2017-Dec-13 00:00N 31°05' W 073°26'7 6.6 1005.9 21.7
2017-Dec-12 23:00N 30°58' W 073°26'7 6.6 1006.6 21.5
2017-Dec-12 22:00N 30°52' W 073°27'6 6.2 1006.7 21.8
2017-Dec-12 21:00N 30°46' W 073°31'2 2.1 1007.4 21.9
2017-Dec-12 20:00N 30°46' W 073°33'6 5.7 1007.7 21.7
2017-Dec-12 19:00N 30°50' W 073°37'5 5.2 1008.2 22.0
2017-Dec-12 18:00N 30°55' W 073°40'1 0.8 1009.2 20.8
2017-Dec-12 17:00N 30°55' W 073°41'6 6.0 1010.7 22.4
2017-Dec-12 16:00N 30°58' W 073°47'4 4.5 1012.3 21.9
2017-Dec-12 15:00N 31°00' W 073°52'6 5.7 1013.4 21.6
2017-Dec-12 14:00N 31°01' W 073°58'4 4.1 1013.7 21.1
2017-Dec-12 13:00N 31°01' W 074°03'2 2.5 1014.0 20.9
2017-Dec-12 12:00N 31°03' W 074°02'1 1.2 1014.0 20.8
2017-Dec-12 11:00N 31°02' W 074°02'3 1.5 1014.2 20.6
2017-Dec-12 09:00N 30°59' W 074°03'1 1.2 1014.5 20.1
2017-Dec-12 08:00N 30°58' W 074°03'3 1.5 1015.2 20.1
2017-Dec-12 06:00N 30°55' W 074°03'11 5.4 1016.5 20.0
2017-Dec-12 04:00N 30°49' W 073°52'7 7.2 1018.0 19.4
2017-Dec-12 03:00N 30°46' W 073°45'15 7.6 1018.4 19.5
2017-Dec-12 01:00N 30°35' W 073°32'5 5.4 1018.8 19.2
2017-Dec-12 00:00N 30°30' W 073°31'8 8.1 1018.8 19.1
2017-Dec-11 23:00N 30°23' W 073°37'7 7.4 1018.6 19.1
2017-Dec-11 22:00N 30°16' W 073°38'3 3.2 1018.3 19.1
2017-Dec-11 21:00N 30°14' W 073°41'4 3.5 1018.1 19.9
2017-Dec-11 20:00N 30°16' W 073°44'4 3.8 1018.1 19.9
2017-Dec-11 19:00N 30°17' W 073°48'4 3.7 1018.5 19.6
2017-Dec-11 18:00N 30°17' W 073°52'2 2.1 1019.0 19.6
2017-Dec-11 17:00N 30°15' W 073°53'17 5.8 1019.9 18.8
2017-Dec-11 14:00N 29°59' W 074°02'6 6.0 1022.1 18.0
2017-Dec-11 13:00N 29°53' W 074°02'4 4.2 1021.9 17.8
2017-Dec-11 12:00N 29°49' W 074°02'1 0.6 1021.5 17.7
2017-Dec-11 11:00N 29°50' W 074°02'1 0.6 1020.9 17.6
2017-Dec-11 10:00N 29°50' W 074°02'1 0.6 1020.6 17.6
2017-Dec-11 09:00N 29°51' W 074°02'1 0.6 1020.4 17.7
2017-Dec-11 08:00N 29°52' W 074°02'1 0.6 1020.5 17.9
2017-Dec-11 07:00N 29°52' W 074°02'1 0.5 1020.5 17.8
2017-Dec-11 06:00N 29°52' W 074°03'6 6.0 1020.7 17.8
2017-Dec-11 05:00N 29°58' W 074°04'12 5.9 1021.2 17.8
2017-Dec-11 03:00N 30°08' W 073°56'6 6.3 1021.5 17.5
2017-Dec-11 02:00N 30°07' W 073°49'6 5.7 1021.3 18.1
2017-Dec-11 01:00N 30°08' W 073°42'6 5.7 1021.0 17.9
2017-Dec-11 00:00N 30°05' W 073°36'6 5.7 1020.5 18.6
2017-Dec-10 23:00N 30°05' W 073°29'6 6.3 1019.8 19.1
2017-Dec-10 22:00N 30°04' W 073°22'6 6.2 1019.0 19.4
2017-Dec-10 21:00N 30°04' W 073°15'5 4.7 1018.5 19.4
2017-Dec-10 20:00N 30°04' W 073°10'0 0.0 1018.0 19.8
2017-Dec-10 19:00N 30°04' W 073°10'1 0.8 1017.6 20.1
2017-Dec-10 18:00N 30°04' W 073°10'0 0.0 1017.7 19.9
2017-Dec-10 17:00N 30°04' W 073°10'1 0.5 1018.1 20.2
2017-Dec-10 16:00N 30°04' W 073°11'0 0.0 1018.4 20.8
2017-Dec-10 15:00N 30°04' W 073°11'1 0.8 1018.3 20.9
2017-Dec-10 14:00N 30°03' W 073°11'1 0.3 1017.8 20.8
2017-Dec-10 11:00N 30°04' W 073°12'0 0.0 1014.7 20.9
2017-Dec-10 10:00N 30°04' W 073°12'1 0.5 1013.7 20.8
2017-Dec-10 09:00N 30°04' W 073°13'1 1.2 1012.9 20.0
2017-Dec-10 08:00N 30°03' W 073°14'1 0.5 1013.1 19.2
2017-Dec-10 07:00N 30°03' W 073°14'1 0.5 1013.0 18.8
2017-Dec-10 06:00N 30°03' W 073°15'1 0.8 1012.3 19.7
2017-Dec-10 05:00N 30°02' W 073°16'2 0.8 1012.7 19.4
2017-Dec-10 03:00N 30°02' W 073°17'1 1.0 1012.5 21.0
2017-Dec-10 02:00N 30°02' W 073°19'1 1.3 1012.0 21.4
2017-Dec-10 01:00N 30°01' W 073°19'1 0.8 1011.7 20.8
2017-Dec-10 00:00N 30°00' W 073°20'1 0.8 1010.3 23.8
2017-Dec-09 23:00N 29°59' W 073°20'1 1.2 1010.1 25.4
2017-Dec-09 22:00N 29°58' W 073°20'1 1.3 1009.8 25.5
2017-Dec-09 21:00N 29°57' W 073°21'1 0.8 1009.8 25.7
2017-Dec-09 20:00N 29°56' W 073°22'2 0.9 1009.7 25.9
2017-Dec-09 18:00N 29°55' W 073°22'1 1.3 1010.0 26.2
2017-Dec-09 17:00N 29°53' W 073°23'1 0.6 1010.7 26.0
2017-Dec-09 16:00N 29°53' W 073°23'1 1.3 1012.0 25.8
2017-Dec-09 15:00N 29°52' W 073°23'1 1.2 1012.4 25.8
2017-Dec-09 14:00N 29°50' W 073°23'1 0.8 1012.7 25.6
2017-Dec-09 13:00N 29°50' W 073°24'1 1.3 1012.2 25.5
2017-Dec-09 12:00N 29°49' W 073°25'1 1.2 1012.4 25.3
2017-Dec-09 11:00N 29°47' W 073°25'1 1.3 1012.3 25.1
2017-Dec-09 10:00N 29°46' W 073°25'1 0.8 1011.8 25.1
2017-Dec-09 09:00N 29°46' W 073°26'1 1.2 1011.9 25.1
2017-Dec-09 08:00N 29°44' W 073°26'1 1.3 1012.6 25.1
2017-Dec-09 07:00N 29°43' W 073°26'1 0.8 1012.3 25.1
2017-Dec-09 06:00N 29°43' W 073°27'3 1.0 1012.8 25.2
2017-Dec-09 03:00N 29°40' W 073°28'2 0.9 1013.7 25.3
2017-Dec-09 01:00N 29°38' W 073°28'1 0.8 1013.7 25.3
2017-Dec-09 00:00N 29°37' W 073°28'1 1.2 1013.6 25.2
2017-Dec-08 23:00N 29°36' W 073°28'1 0.8 1013.3 25.3
2017-Dec-08 22:00N 29°35' W 073°29'2 0.9 1013.0 25.3
2017-Dec-08 20:00N 29°37' W 073°29'1 1.2 1012.9 25.3
2017-Dec-08 19:00N 29°36' W 073°29'4 3.7 1013.1 25.3
2017-Dec-08 18:00N 29°40' W 073°28'4 4.3 1013.9 25.2
2017-Dec-08 17:00N 29°44' W 073°26'10 4.9 1014.7 25.0
2017-Dec-08 15:00N 29°53' W 073°22'5 4.7 1015.3 24.4
2017-Dec-08 14:00N 29°57' W 073°20'5 5.2 1015.2 23.7
2017-Dec-08 13:00N 30°02' W 073°17'5 5.5 1015.3 23.6
2017-Dec-08 12:00N 30°07' W 073°14'6 5.8 1015.1 22.4
2017-Dec-08 11:00N 30°12' W 073°12'5 5.5 1015.0 22.5
2017-Dec-08 10:00N 30°16' W 073°07'   1014.4 23.1

Dump ship's entire track history